Terminal Aerodrome Forecast
Issued by NWS

Home | Current Version | Previous Version | Text Only | Print | Product List | Glossary On
Versions: 1 2 3 4 5 6 7 8 9 10 11 12 13 14 15 16 17 18 19 20
000
FTUS43 KILX 131725
TAFDEC
TAF
KDEC 131725Z 1318/1418 24022G32KT P6SM BKN200
     FM132100 27024G38KT P6SM VCSH BKN060
     FM140000 30021G38KT P6SM BKN025
     FM140400 32018G30KT P6SM BKN030
     FM140500 33015G25KT P6SM BKN070
     FM140700 33008KT P6SM BKN060=

USA.gov is the U.S. government's official web portal to all federal, state and local government web resources and services.